createdAt,value
2018-02-12T00:01:07.356Z,44.10
2018-02-12T00:03:36.523Z,41.15
2018-02-12T00:06:06.012Z,36.78
2018-02-12T00:08:37.336Z,37.00
2018-02-12T00:11:08.247Z,35.72
2018-02-12T00:13:37.978Z,33.30
2018-02-12T00:16:08.900Z,33.70
2018-02-12T00:18:39.520Z,33.02
2018-02-12T00:21:12.787Z,33.74
2018-02-12T00:23:42.599Z,31.98
2018-02-12T00:26:12.095Z,32.88
2018-02-12T00:28:43.549Z,32.34
2018-02-12T00:31:14.031Z,31.72
2018-02-12T00:33:45.009Z,33.63
2018-02-12T00:36:15.479Z,33.80
2018-02-12T00:38:46.044Z,32.44
2018-02-12T00:41:16.538Z,31.92
2018-02-12T00:43:46.374Z,32.55
2018-02-12T00:46:16.870Z,30.50
2018-02-12T00:48:47.959Z,30.08
2018-02-12T00:51:18.871Z,32.00
2018-02-12T00:53:49.755Z,32.22
2018-02-12T00:56:24.023Z,31.48
2018-02-12T00:58:53.875Z,31.20
2018-02-12T01:01:24.570Z,30.37
2018-02-12T01:03:55.519Z,31.42
2018-02-12T01:06:26.419Z,32.05
2018-02-12T01:08:57.505Z,31.05
2018-02-12T01:11:28.023Z,32.25
2018-02-12T01:13:58.648Z,31.95
2018-02-12T01:16:29.527Z,32.30
2018-02-12T01:19:00.486Z,31.27
2018-02-12T01:21:31.480Z,34.20
2018-02-12T01:24:05.177Z,33.90
2018-02-12T01:26:34.255Z,35.30
2018-02-12T01:29:05.556Z,37.30
2018-02-12T01:31:36.067Z,36.40
2018-02-12T01:34:06.596Z,38.10
2018-02-12T01:36:37.083Z,37.02
2018-02-12T01:39:07.601Z,38.72
2018-02-12T01:41:39.185Z,37.86
2018-02-12T01:44:09.807Z,44.30
2018-02-12T01:46:40.500Z,50.72
2018-02-12T01:49:11.450Z,51.47
2018-02-12T01:51:42.383Z,46.85
2018-02-12T01:54:12.396Z,45.08
2018-02-12T01:56:43.042Z,42.55
2018-02-12T01:59:13.764Z,41.25
2018-02-12T02:01:45.195Z,42.08
2018-02-12T02:04:16.636Z,39.44
2018-02-12T02:06:47.530Z,37.65
2018-02-12T02:09:20.156Z,40.65
2018-02-12T02:11:49.841Z,37.15
2018-02-12T02:14:20.375Z,37.58
2018-02-12T02:16:50.871Z,38.50
2018-02-12T02:19:21.827Z,43.47
2018-02-12T02:21:52.430Z,41.97
2018-02-12T02:24:23.793Z,40.36
2018-02-12T02:26:54.539Z,39.33
2018-02-12T02:29:25.105Z,38.70
2018-02-12T02:31:55.680Z,37.58
2018-02-12T02:34:26.089Z,33.18
2018-02-12T02:36:56.340Z,43.78
2018-02-12T02:39:27.388Z,36.97
2018-02-12T02:41:58.235Z,38.10
2018-02-12T02:44:29.593Z,39.44
2018-02-12T02:47:00.963Z,42.26
2018-02-12T02:49:31.575Z,44.92
2018-02-12T02:52:02.463Z,41.15
2018-02-12T02:54:33.367Z,38.92
2018-02-12T02:57:05.001Z,35.62
2018-02-12T02:59:35.714Z,37.08
2018-02-12T03:02:06.044Z,36.04
2018-02-12T03:04:41.352Z,34.68
2018-02-12T03:07:10.600Z,34.35
2018-02-12T03:09:39.724Z,35.08
2018-02-12T03:12:08.915Z,32.50
2018-02-12T03:14:39.934Z,26.58
2018-02-12T03:17:10.143Z,25.28
2018-02-12T03:19:40.972Z,24.48
2018-02-12T03:22:11.594Z,24.87
2018-02-12T03:24:43.142Z,25.17
2018-02-12T03:27:13.603Z,24.67
2018-02-12T03:29:43.860Z,24.80
2018-02-12T03:32:14.357Z,25.58
2018-02-12T03:34:45.194Z,25.62
2018-02-12T03:37:16.620Z,24.02
2018-02-12T03:39:47.892Z,25.92
2018-02-12T03:42:17.922Z,23.98
2018-02-12T03:44:49.575Z,23.96
2018-02-12T03:47:25.372Z,28.12
2018-02-12T03:49:54.554Z,26.20
2018-02-12T03:52:23.759Z,26.67
2018-02-12T03:54:54.143Z,27.44
2018-02-12T03:57:25.340Z,28.38
2018-02-12T03:59:54.959Z,28.45
2018-02-12T04:02:25.607Z,29.83
2018-02-12T04:04:55.480Z,26.05
2018-02-12T04:07:26.023Z,26.87
2018-02-12T04:09:57.759Z,23.82
2018-02-12T04:12:29.198Z,22.32
2018-02-12T04:14:59.672Z,19.08
2018-02-12T04:17:30.532Z,18.27
2018-02-12T04:20:01.087Z,18.74
2018-02-12T04:22:31.784Z,15.85
2018-02-12T04:25:03.339Z,16.84
2018-02-12T04:27:33.942Z,16.40
2018-02-12T04:30:04.214Z,15.60
2018-02-12T04:32:35.767Z,14.88
2018-02-12T04:35:06.229Z,14.26
2018-02-12T04:37:35.956Z,13.32
2018-02-12T04:40:06.895Z,13.90
2018-02-12T04:42:40.640Z,13.99
2018-02-12T04:45:09.824Z,14.15
2018-02-12T04:47:39.209Z,13.83
2018-02-12T04:50:10.215Z,13.68
2018-02-12T04:52:40.814Z,13.24
2018-02-12T04:55:11.546Z,13.10
2018-02-12T04:57:42.401Z,13.45
2018-02-12T05:00:14.274Z,13.96
2018-02-12T05:02:45.063Z,13.62
2018-02-12T05:05:15.554Z,12.85
2018-02-12T05:07:46.526Z,13.85
2018-02-12T05:10:18.303Z,13.50
2018-02-12T05:12:48.987Z,12.50
2018-02-12T05:15:18.238Z,13.18
2018-02-12T05:17:49.164Z,13.05
2018-02-12T05:20:19.582Z,12.32
2018-02-12T05:22:50.212Z,13.65
2018-02-12T05:25:20.819Z,12.63
2018-02-12T05:27:52.545Z,13.72
2018-02-12T05:30:24.821Z,14.64
2018-02-12T05:32:54.206Z,15.02
2018-02-12T05:35:24.379Z,15.02
2018-02-12T05:37:56.463Z,15.25
2018-02-12T05:40:28.117Z,15.27
2018-02-12T05:42:57.812Z,14.75
2018-02-12T05:45:29.489Z,16.33
2018-02-12T05:48:00.054Z,14.10
2018-02-12T05:50:30.481Z,14.85
2018-02-12T05:53:01.864Z,15.60
2018-02-12T05:55:32.907Z,15.65
2018-02-12T05:58:04.284Z,16.10
2018-02-12T06:00:33.840Z,17.35
2018-02-12T06:03:04.603Z,17.25
2018-02-12T06:05:35.330Z,17.52
2018-02-12T06:08:06.264Z,16.60
2018-02-12T06:10:37.596Z,16.10
2018-02-12T06:13:09.198Z,16.68
2018-02-12T06:15:39.829Z,15.60
2018-02-12T06:18:09.153Z,15.55
2018-02-12T06:20:39.812Z,15.68
2018-02-12T06:23:10.729Z,17.77
2018-02-12T06:25:42.497Z,146.45
2018-02-12T06:28:12.999Z,54.65
2018-02-12T06:30:43.989Z,23.27
2018-02-12T06:33:14.409Z,28.17
2018-02-12T06:35:45.204Z,20.85
2018-02-12T06:38:15.794Z,19.98
2018-02-12T06:40:46.785Z,19.80
2018-02-12T06:43:18.576Z,18.28
2018-02-12T06:45:49.180Z,15.95
2018-02-12T06:48:19.682Z,17.37
2018-02-12T06:50:51.142Z,18.10
2018-02-12T06:53:21.796Z,27.15
2018-02-12T06:55:52.153Z,20.25
2018-02-12T06:58:22.965Z,27.50
2018-02-12T07:00:53.891Z,26.40
2018-02-12T07:03:25.386Z,26.15
2018-02-12T07:05:56.729Z,29.14
2018-02-12T07:08:27.433Z,26.42
2018-02-12T07:10:58.016Z,25.20
2018-02-12T07:16:20.213Z,38.08
2018-02-12T07:18:49.040Z,25.97
2018-02-12T07:21:18.191Z,17.98
2018-02-12T07:23:48.227Z,17.47
2018-02-12T07:26:17.363Z,16.35
2018-02-12T07:28:46.609Z,18.40
2018-02-12T07:31:16.000Z,16.42
2018-02-12T07:33:46.351Z,16.20
2018-02-12T07:36:16.579Z,16.35
2018-02-12T07:38:46.643Z,16.80
2018-02-12T07:41:15.888Z,16.60
2018-02-12T07:43:45.077Z,16.17
2018-02-12T07:46:15.803Z,17.90
2018-02-12T07:48:45.147Z,17.90
2018-02-12T07:51:14.366Z,16.40
2018-02-12T07:53:44.952Z,16.28
2018-02-12T07:56:15.456Z,16.50
2018-02-12T07:58:46.388Z,15.07
2018-02-12T08:01:18.353Z,15.43
2018-02-12T08:03:51.192Z,11.67
2018-02-12T08:06:20.291Z,11.82
2018-02-12T08:08:50.271Z,10.77
2018-02-12T08:11:20.591Z,10.95
2018-02-12T08:13:51.385Z,9.70
2018-02-12T08:16:22.305Z,10.05
2018-02-12T08:18:53.127Z,9.85
2018-02-12T08:21:24.762Z,9.70
2018-02-12T08:23:56.503Z,11.65
2018-02-12T08:26:27.954Z,10.50
2018-02-12T08:28:57.835Z,10.55
2018-02-12T08:31:28.517Z,9.38
2018-02-12T08:33:59.281Z,8.30
2018-02-12T08:36:30.123Z,7.82
2018-02-12T08:39:08.448Z,7.75
2018-02-12T08:41:37.603Z,7.40
2018-02-12T08:44:06.814Z,7.70
2018-02-12T08:46:35.957Z,7.68
2018-02-12T08:49:06.199Z,6.52
2018-02-12T08:51:36.508Z,6.80
2018-02-12T08:54:07.425Z,6.65
2018-02-12T08:56:37.916Z,6.87
2018-02-12T08:59:09.288Z,5.88
2018-02-12T09:01:39.716Z,8.40
2018-02-12T09:04:10.378Z,6.32
2018-02-12T09:06:42.651Z,6.47
2018-02-12T09:09:13.231Z,5.90
2018-02-12T09:11:43.697Z,6.86
2018-02-12T09:14:14.072Z,5.88
2018-02-12T09:16:44.460Z,6.35
2018-02-12T09:19:15.324Z,5.05
2018-02-12T09:21:45.895Z,5.90
2018-02-12T09:24:16.554Z,5.40
2018-02-12T09:26:47.798Z,5.86
2018-02-12T09:29:18.439Z,5.28
2018-02-12T09:31:49.317Z,5.05
2018-02-12T09:34:20.318Z,5.93
2018-02-12T09:36:51.211Z,5.40
2018-02-12T09:39:21.655Z,5.47
2018-02-12T09:41:52.369Z,5.10
2018-02-12T09:44:23.304Z,5.10
2018-02-12T09:46:54.117Z,5.15
2018-02-12T09:49:25.711Z,5.48
2018-02-12T09:51:58.001Z,5.50
2018-02-12T09:54:27.795Z,5.25
2018-02-12T09:56:58.328Z,5.25
2018-02-12T09:59:29.240Z,5.28
2018-02-12T10:02:00.483Z,5.76
2018-02-12T10:04:31.335Z,5.30
2018-02-12T10:07:01.788Z,5.36
2018-02-12T10:09:32.399Z,4.60
2018-02-12T10:12:03.183Z,4.90
2018-02-12T10:14:34.519Z,4.08
2018-02-12T10:17:05.199Z,4.75
2018-02-12T10:19:36.184Z,4.75
2018-02-12T10:22:07.120Z,4.70
2018-02-12T10:24:37.555Z,4.90
2018-02-12T10:27:08.362Z,4.47
2018-02-12T10:29:39.246Z,4.87
2018-02-12T10:32:10.144Z,5.25
2018-02-12T10:34:41.582Z,4.78
2018-02-12T10:37:12.109Z,4.74
2018-02-12T10:39:42.519Z,5.18
2018-02-12T10:42:13.373Z,5.40
2018-02-12T10:44:44.007Z,4.58
2018-02-12T10:47:14.775Z,4.60
2018-02-12T10:49:45.217Z,4.14
2018-02-12T10:52:15.652Z,4.50
2018-02-12T10:54:46.596Z,4.12
2018-02-12T10:57:17.484Z,4.32
2018-02-12T10:59:48.366Z,4.20
2018-02-12T11:02:18.897Z,4.20
2018-02-12T11:04:49.480Z,4.20
2018-02-12T11:07:19.911Z,3.68
2018-02-12T11:09:50.560Z,3.20
2018-02-12T11:12:21.407Z,3.87
2018-02-12T11:14:52.272Z,3.60
2018-02-12T11:17:23.067Z,4.25
2018-02-12T11:19:54.464Z,4.62
2018-02-12T11:22:25.238Z,3.97
2018-02-12T11:24:56.280Z,3.90
2018-02-12T11:27:27.115Z,3.83
2018-02-12T11:29:58.412Z,4.00
2018-02-12T11:32:29.299Z,4.07
2018-02-12T11:35:00.200Z,4.50
2018-02-12T11:37:31.557Z,4.70
2018-02-12T11:40:02.490Z,4.28
2018-02-12T11:42:33.273Z,4.50
2018-02-12T11:45:04.576Z,4.18
2018-02-12T11:47:35.386Z,5.90
2018-02-12T11:50:06.279Z,6.05
2018-02-12T11:52:37.021Z,4.72
2018-02-12T11:55:08.512Z,4.36
2018-02-12T11:57:39.574Z,5.36
2018-02-12T12:00:10.411Z,4.35
2018-02-12T12:02:41.178Z,4.95
2018-02-12T12:05:12.515Z,4.90
2018-02-12T12:07:43.315Z,4.68
2018-02-12T12:10:15.290Z,4.68
2018-02-12T12:12:45.810Z,4.28
2018-02-12T12:15:16.458Z,5.00
2018-02-12T12:17:47.394Z,5.22
2018-02-12T12:20:18.643Z,4.68
2018-02-12T12:22:49.004Z,4.52
2018-02-12T12:25:19.801Z,5.12
2018-02-12T12:27:50.395Z,4.45
2018-02-12T12:30:20.882Z,4.58
2018-02-12T12:32:51.398Z,4.78
2018-02-12T12:35:22.277Z,4.35
2018-02-12T12:37:52.687Z,4.58
2018-02-12T12:40:23.435Z,4.10
2018-02-12T12:42:54.216Z,4.70
2018-02-12T12:45:25.604Z,4.44
2018-02-12T12:47:56.319Z,4.70
2018-02-12T12:50:27.232Z,5.55
2018-02-12T12:52:58.215Z,4.45
2018-02-12T12:55:29.148Z,4.30
2018-02-12T12:58:00.523Z,4.82
2018-02-12T13:00:31.082Z,4.66
2018-02-12T13:03:01.487Z,36.17
2018-02-12T13:05:32.414Z,4.00
2018-02-12T13:08:04.112Z,3.00
2018-02-12T13:10:34.480Z,3.35
2018-02-12T13:13:04.954Z,3.20
2018-02-12T13:15:35.619Z,3.12
2018-02-12T13:18:06.311Z,2.60
2018-02-12T13:20:37.204Z,2.92
2018-02-12T13:23:07.563Z,3.55
2018-02-12T13:25:38.453Z,3.45
2018-02-12T13:28:09.240Z,3.30
2018-02-12T13:30:40.162Z,2.97
2018-02-12T13:33:11.001Z,2.97
2018-02-12T13:35:41.469Z,3.05
2018-02-12T13:38:12.394Z,3.25
2018-02-12T13:40:43.442Z,3.08
2018-02-12T13:43:14.244Z,2.90
2018-02-12T13:45:45.807Z,3.17
2018-02-12T13:48:16.356Z,3.60
2018-02-12T13:50:47.241Z,2.95
2018-02-12T13:56:03.541Z,3.37
2018-02-12T13:58:34.729Z,3.00
2018-02-12T14:01:03.982Z,3.00
2018-02-12T14:03:33.446Z,3.90
2018-02-12T14:06:02.555Z,3.00
2018-02-12T14:08:31.802Z,2.90
2018-02-12T14:11:00.963Z,3.05
2018-02-12T14:13:30.029Z,2.82
2018-02-12T14:15:59.459Z,2.97
2018-02-12T14:18:28.533Z,3.00
2018-02-12T14:20:59.032Z,3.10
2018-02-12T14:23:29.533Z,3.45
2018-02-12T14:26:00.344Z,3.22
2018-02-12T14:28:31.195Z,3.67
2018-02-12T14:31:02.083Z,3.85
2018-02-12T14:33:33.429Z,4.32
2018-02-12T14:36:04.045Z,5.88
2018-02-12T14:38:34.484Z,6.72
2018-02-12T14:41:05.356Z,138.85
2018-02-12T14:43:35.902Z,83.88
2018-02-12T14:46:06.667Z,13.75
2018-02-12T14:48:37.098Z,7.16
2018-02-12T14:51:07.485Z,4.78
2018-02-12T14:53:38.347Z,5.40
2018-02-12T14:56:08.898Z,18.56
2018-02-12T14:58:39.518Z,27.87
2018-02-12T15:01:10.372Z,150.05
2018-02-12T15:03:41.284Z,44.65
2018-02-12T15:06:12.122Z,16.42
2018-02-12T15:08:43.500Z,26.76
2018-02-12T15:11:14.331Z,32.05
2018-02-12T15:13:44.886Z,100.26
2018-02-12T15:16:15.555Z,20.35
2018-02-12T15:18:46.159Z,7.78
2018-02-12T15:21:17.003Z,7.12
2018-02-12T15:23:47.528Z,9.98
2018-02-12T15:26:18.372Z,7.82
2018-02-12T15:28:49.237Z,9.40
2018-02-12T15:31:20.542Z,6.46
2018-02-12T15:33:51.437Z,6.70
2018-02-12T15:36:22.305Z,5.40
2018-02-12T15:38:52.920Z,5.14
2018-02-12T15:41:23.456Z,6.87
2018-02-12T15:43:54.311Z,7.78
2018-02-12T15:46:25.100Z,9.32
2018-02-12T15:48:56.338Z,9.95
2018-02-12T15:51:26.776Z,9.70
2018-02-12T15:53:57.740Z,9.48
2018-02-12T15:56:28.531Z,10.25
2018-02-12T15:58:59.397Z,9.10
2018-02-12T16:01:30.199Z,8.93
2018-02-12T16:04:01.147Z,10.68
2018-02-12T16:06:32.449Z,12.02
2018-02-12T16:09:03.416Z,8.43
2018-02-12T16:11:34.229Z,8.50
2018-02-12T16:14:05.148Z,9.70
2018-02-12T16:16:36.392Z,10.06
2018-02-12T16:19:07.255Z,8.90
2018-02-12T16:21:37.536Z,7.43
2018-02-12T16:24:08.408Z,8.48
2018-02-12T16:26:38.854Z,8.82
2018-02-12T16:29:09.451Z,10.57
2018-02-12T16:32:05.034Z,12.77
2018-02-12T16:34:35.375Z,16.23
2018-02-12T16:37:04.383Z,26.90
2018-02-12T16:39:33.210Z,52.03
2018-02-12T16:42:02.350Z,75.37
2018-02-12T16:44:31.867Z,69.50
2018-02-12T16:47:01.091Z,69.25
2018-02-12T16:49:30.201Z,61.88
2018-02-12T16:51:59.631Z,44.97
2018-02-12T16:54:28.821Z,30.95
2018-02-12T16:56:58.094Z,29.02
2018-02-12T16:59:27.201Z,27.90
2018-02-12T17:01:56.662Z,27.00
2018-02-12T17:04:25.861Z,79.68
2018-02-12T17:06:55.056Z,40.78
2018-02-12T17:09:24.778Z,44.67
2018-02-12T17:11:55.446Z,57.25
2018-02-12T17:14:26.390Z,103.72
2018-02-12T17:16:57.323Z,125.93
2018-02-12T17:19:28.306Z,131.95
2018-02-12T17:21:59.190Z,127.20
2018-02-12T17:24:30.682Z,125.60
2018-02-12T17:27:01.622Z,195.75
2018-02-12T17:29:32.442Z,509.92
2018-02-12T17:32:03.366Z,477.35
2018-02-12T17:34:34.052Z,264.76
2018-02-12T17:37:04.537Z,200.73
2018-02-12T17:39:35.584Z,177.48
2018-02-12T17:42:06.434Z,110.43
2018-02-12T17:44:37.039Z,102.34
2018-02-12T17:47:07.549Z,108.43
2018-02-12T17:49:38.476Z,107.32
2018-02-12T17:52:09.361Z,102.10
2018-02-12T17:54:40.320Z,102.15
2018-02-12T17:57:11.242Z,90.57
2018-02-12T17:59:42.567Z,66.60
2018-02-12T18:02:13.511Z,52.65
2018-02-12T18:04:44.431Z,68.53
2018-02-12T18:07:15.302Z,77.10
2018-02-12T18:09:46.243Z,63.95
2018-02-12T18:12:17.167Z,99.03
2018-02-12T18:14:48.491Z,54.32
2018-02-12T18:17:19.370Z,40.70
2018-02-12T18:19:50.738Z,70.04
2018-02-12T18:22:21.396Z,33.25
2018-02-12T18:24:51.946Z,55.20
2018-02-12T18:27:22.518Z,67.05
2018-02-12T18:29:53.461Z,151.80
2018-02-12T18:32:24.361Z,177.75
2018-02-12T18:34:55.279Z,41.45
2018-02-12T18:37:26.130Z,16.35
2018-02-12T18:39:57.554Z,36.30
2018-02-12T18:42:27.992Z,16.42
2018-02-12T18:44:59.270Z,58.76
2018-02-12T18:47:30.146Z,26.23
2018-02-12T18:50:01.169Z,58.17
2018-02-12T18:52:32.051Z,50.97
2018-02-12T18:55:03.559Z,67.48
2018-02-12T18:57:34.254Z,36.92
2018-02-12T19:00:04.722Z,35.05
2018-02-12T19:02:35.479Z,33.38
2018-02-12T19:05:06.646Z,32.83
2018-02-12T19:07:37.093Z,51.20
2018-02-12T19:10:07.843Z,69.85
2018-02-12T19:12:38.720Z,41.37
2018-02-12T19:15:10.148Z,102.18
2018-02-12T19:17:40.784Z,50.83
2018-02-12T19:20:12.232Z,30.22
2018-02-12T19:22:42.910Z,25.37
2018-02-12T19:25:13.855Z,45.58
2018-02-12T19:27:44.665Z,83.50
2018-02-12T19:30:15.109Z,71.85
2018-02-12T19:32:45.759Z,36.83
2018-02-12T19:35:16.283Z,18.17
2018-02-12T19:37:46.877Z,17.83
2018-02-12T19:40:17.873Z,17.95
2018-02-12T19:42:48.701Z,18.98
2018-02-12T19:45:20.386Z,20.44
2018-02-12T19:47:50.563Z,19.45
2018-02-12T19:50:22.369Z,19.16
2018-02-12T19:52:52.862Z,21.77
2018-02-12T19:55:23.935Z,27.55
2018-02-12T19:57:54.764Z,26.83
2018-02-12T20:00:26.233Z,28.46
2018-02-12T20:02:56.999Z,28.77
2018-02-12T20:05:27.727Z,29.75
2018-02-12T20:07:59.007Z,29.80
2018-02-12T20:10:30.547Z,29.64
2018-02-12T20:13:01.043Z,31.37
2018-02-12T20:15:31.858Z,31.90
2018-02-12T20:18:02.391Z,32.42
2018-02-12T20:20:33.918Z,35.50
2018-02-12T20:23:04.651Z,35.97
2018-02-12T20:25:35.130Z,39.92
2018-02-12T20:28:05.783Z,41.05
2018-02-12T20:30:36.742Z,40.17
2018-02-12T20:33:08.024Z,41.64
2018-02-12T20:35:38.552Z,40.33
2018-02-12T20:38:09.205Z,42.70
2018-02-12T20:40:40.207Z,42.33
2018-02-12T20:43:11.479Z,43.00
2018-02-12T20:45:42.544Z,42.60
2018-02-12T20:48:13.383Z,43.08
2018-02-12T20:50:44.540Z,48.33
2018-02-12T20:53:15.411Z,50.60
2018-02-12T20:55:46.389Z,51.00
2018-02-12T20:58:17.278Z,47.88
2018-02-12T21:00:48.202Z,42.72
2018-02-12T21:03:19.450Z,41.62
2018-02-12T21:05:51.042Z,47.64
2018-02-12T21:08:21.504Z,49.50
2018-02-12T21:10:52.091Z,50.04
2018-02-12T21:13:22.795Z,52.62
2018-02-12T21:15:53.591Z,54.20
2018-02-12T21:18:24.457Z,52.47
2018-02-12T21:20:55.015Z,53.32
2018-02-12T21:23:25.513Z,55.10
2018-02-12T21:25:56.461Z,49.78
2018-02-12T21:28:27.284Z,48.46
2018-02-12T21:30:57.557Z,48.74
2018-02-12T21:33:27.846Z,47.22
2018-02-12T21:35:58.515Z,47.90
2018-02-12T21:38:29.024Z,49.34
2018-02-12T21:40:59.559Z,51.17
2018-02-12T21:43:30.992Z,57.10
2018-02-12T21:46:01.519Z,76.12
2018-02-12T21:48:32.359Z,62.08
2018-02-12T21:51:03.855Z,54.92
2018-02-12T21:53:34.139Z,57.86
2018-02-12T21:56:04.494Z,51.60
2018-02-12T21:58:35.340Z,53.45
2018-02-12T22:01:06.313Z,48.58
2018-02-12T22:06:28.560Z,49.80
2018-02-12T22:08:57.356Z,50.50
2018-02-12T22:11:26.139Z,50.42
2018-02-12T22:13:55.331Z,47.47
2018-02-12T22:16:24.904Z,48.35
2018-02-12T22:18:54.003Z,47.45
2018-02-12T22:21:23.140Z,45.50
2018-02-12T22:23:52.559Z,45.85
2018-02-12T22:26:21.763Z,48.72
2018-02-12T22:28:50.925Z,45.53
2018-02-12T22:31:19.991Z,44.13
2018-02-12T22:33:49.078Z,41.46
2018-02-12T22:36:18.855Z,40.20
2018-02-12T22:38:50.044Z,39.07
2018-02-12T22:41:20.599Z,35.83
2018-02-12T22:43:53.845Z,36.83
2018-02-12T22:46:24.650Z,36.17
2018-02-12T22:48:54.117Z,34.55
2018-02-12T22:51:24.659Z,34.60
2018-02-12T22:53:55.114Z,35.95
2018-02-12T22:56:25.551Z,35.90
2018-02-12T22:58:57.913Z,37.08
2018-02-12T23:01:28.340Z,37.28
2018-02-12T23:03:58.771Z,34.18
2018-02-12T23:06:30.248Z,35.44
2018-02-12T23:09:00.697Z,34.52
2018-02-12T23:11:31.045Z,31.98
2018-02-12T23:14:01.883Z,33.55
2018-02-12T23:16:32.492Z,30.52
2018-02-12T23:19:02.255Z,29.40
2018-02-12T23:21:32.891Z,30.48
2018-02-12T23:24:03.708Z,29.25
2018-02-12T23:26:35.039Z,29.70
2018-02-12T23:29:05.688Z,28.48
2018-02-12T23:31:37.135Z,30.26
2018-02-12T23:34:09.366Z,30.60
2018-02-12T23:36:40.715Z,28.98
2018-02-12T23:39:11.971Z,27.80
2018-02-12T23:41:41.909Z,29.20
2018-02-12T23:44:12.420Z,28.75
2018-02-12T23:46:43.356Z,28.27
2018-02-12T23:49:14.184Z,27.73
2018-02-12T23:51:45.092Z,26.85
2018-02-12T23:54:26.997Z,26.20
2018-02-12T23:56:56.126Z,26.50
2018-02-12T23:59:25.218Z,24.60
